Time;durP1;ratioP1;P1;durP2;ratioP2;P2;SDS_P1;SDS_P2;PMS_P1;PMS_P2;Temp;Humidity;BMP_temperature;BMP_pressure;BME280_temperature;BME280_humidity;BME280_pressure;Samples;Min_cycle;Max_cycle;Signal;HPM_P1;HPM_P2
2021/01/28 00:02:11;;;;;;;22.83;18.03;;;;;;;5.98;74.07;100573.06;6109188;29;20439;-61
2021/01/28 00:05:34;;;;;;;21.40;17.83;;;;;;;5.78;74.99;100553.94;6115761;28;20240;-61
2021/01/28 00:08:54;;;;;;;25.17;18.90;;;;;;;5.60;76.49;100559.84;6116024;29;20260;-61
2021/01/28 00:12:15;;;;;;;20.40;17.00;;;;;;;5.71;76.27;100560.78;6103730;28;20319;-61
2021/01/28 00:15:36;;;;;;;23.33;18.00;;;;;;;5.81;76.07;100548.78;6110897;29;20503;-60
2021/01/28 00:18:57;;;;;;;22.40;17.40;;;;;;;5.62;76.64;100552.97;6116379;29;20504;-60
2021/01/28 00:22:18;;;;;;;25.00;19.27;;;;;;;5.94;75.70;100540.25;6110707;29;20236;-62
2021/01/28 00:25:39;;;;;;;26.33;18.07;;;;;;;5.69;76.54;100540.09;6108573;29;20227;-61
2021/01/28 00:29:00;;;;;;;31.40;21.10;;;;;;;5.46;77.54;100549.41;6107963;28;20728;-60
2021/01/28 00:32:20;;;;;;;29.40;21.77;;;;;;;5.78;77.31;100539.31;6116494;28;20236;-61
2021/01/28 00:35:43;;;;;;;26.70;21.13;;;;;;;5.81;76.82;100543.63;6115386;28;20251;-61
2021/01/28 00:39:05;;;;;;;23.97;19.40;;;;;;;6.29;74.46;100544.78;6122076;28;20358;-60
2021/01/28 00:42:25;;;;;;;25.60;17.70;;;;;;;6.34;74.47;100545.66;6112616;28;20260;-61
2021/01/28 00:45:46;;;;;;;23.10;19.20;;;;;;;6.49;73.75;100540.56;6117304;28;20621;-61
2021/01/28 00:49:07;;;;;;;23.77;17.67;;;;;;;6.52;73.53;100539.69;6117321;29;20240;-60
2021/01/28 00:52:27;;;;;;;18.43;16.13;;;;;;;6.31;74.34;100537.88;6114418;28;20232;-61
2021/01/28 00:55:49;;;;;;;20.57;17.80;;;;;;;6.41;73.99;100538.78;6112364;29;20416;-61
2021/01/28 00:59:20;;;;;;;17.97;14.73;;;;;;;6.53;73.68;100532.78;6111327;29;20244;-61
2021/01/28 01:02:41;;;;;;;15.03;12.37;;;;;;;6.76;72.71;100538.88;6118616;28;20232;-61
2021/01/28 01:06:03;;;;;;;15.00;13.10;;;;;;;6.89;71.51;100535.44;6112458;29;20232;-60
2021/01/28 01:09:26;;;;;;;17.67;12.67;;;;;;;6.74;72.18;100542.34;6118469;29;20223;-60
2021/01/28 01:12:49;;;;;;;16.30;12.53;;;;;;;6.74;72.23;100561.31;6117713;28;20247;-59
2021/01/28 01:16:11;;;;;;;12.43;11.13;;;;;;;6.70;72.75;100559.56;6123643;28;20649;-61
2021/01/28 01:19:35;;;;;;;14.93;13.37;;;;;;;6.63;72.58;100568.16;6116779;28;20227;-61
2021/01/28 01:23:06;;;;;;;16.40;13.40;;;;;;;6.57;73.19;100570.75;6113177;29;20672;-61
2021/01/28 01:26:44;;;;;;;16.30;14.30;;;;;;;6.57;73.02;100562.97;6111581;29;20342;-60
2021/01/28 01:30:08;;;;;;;15.60;12.57;;;;;;;6.79;72.13;100564.78;6117856;28;20602;-60
2021/01/28 01:33:37;;;;;;;18.27;13.47;;;;;;;6.88;71.83;100569.09;6116759;28;20512;-60
2021/01/28 01:37:05;;;;;;;17.37;14.63;;;;;;;6.61;72.18;100569.88;6109234;29;20537;-60
2021/01/28 01:40:33;;;;;;;12.43;11.23;;;;;;;6.75;70.96;100568.22;6118928;29;20329;-60
2021/01/28 01:43:57;;;;;;;13.60;12.30;;;;;;;6.61;71.04;100569.88;6116428;28;20236;-61
2021/01/28 01:47:35;;;;;;;15.97;11.37;;;;;;;6.44;70.78;100577.59;6114935;29;20244;-61
2021/01/28 01:50:58;;;;;;;12.90;10.35;;;;;;;6.39;70.16;100569.81;6114590;29;20243;-61
2021/01/28 01:54:24;;;;;;;11.13;9.40;;;;;;;6.32;70.38;100575.84;6118563;28;20912;-61
2021/01/28 01:57:50;;;;;;;11.10;8.73;;;;;;;6.23;69.24;100578.38;6114229;29;20598;-61
2021/01/28 02:01:12;;;;;;;9.63;8.63;;;;;;;6.25;68.94;100582.69;6110536;29;20655;-61
2021/01/28 02:05:00;;;;;;;11.07;9.53;;;;;;;6.40;69.00;100581.91;6114012;29;20322;-60
2021/01/28 02:08:39;;;;;;;10.90;8.73;;;;;;;6.42;68.10;100587.94;6122791;28;20228;-61
2021/01/28 02:12:31;;;;;;;10.43;8.97;;;;;;;6.10;68.47;100575.69;6107190;29;20239;-61
2021/01/28 02:16:05;;;;;;;11.97;8.77;;;;;;;6.18;68.18;100585.22;6120882;28;20322;-60
2021/01/28 02:19:56;;;;;;;11.83;9.93;;;;;;;6.32;67.75;100581.00;6120730;29;20224;-60
2021/01/28 02:23:33;;;;;;;9.97;8.67;;;;;;;6.19;67.39;100571.47;6109759;29;20239;-60
2021/01/28 02:26:56;;;;;;;9.57;8.53;;;;;;;6.26;66.37;100565.44;6113382;28;20314;-60
2021/01/28 02:30:38;;;;;;;13.00;10.33;;;;;;;5.79;67.14;100566.88;6107113;28;20231;-62
2021/01/28 02:33:59;;;;;;;11.87;10.00;;;;;;;5.65;67.51;100565.94;6111092;29;21087;-61
2021/01/28 02:37:25;;;;;;;13.40;10.53;;;;;;;5.76;67.48;100559.13;6110960;29;20227;-60
2021/01/28 02:41:06;;;;;;;12.83;10.97;;;;;;;5.63;68.02;100571.06;6124062;28;20312;-59
2021/01/28 02:44:35;;;;;;;12.87;9.47;;;;;;;5.42;67.92;100568.34;6110980;29;20256;-61
2021/01/28 02:48:15;;;;;;;14.53;12.43;;;;;;;5.50;67.59;100569.25;6115991;29;20231;-61
2021/01/28 02:51:52;;;;;;;16.53;13.23;;;;;;;5.48;68.06;100576.13;6110999;29;20251;-62
2021/01/28 02:55:19;;;;;;;15.10;11.57;;;;;;;5.36;68.19;100581.19;6111905;29;20255;-61
2021/01/28 02:58:42;;;;;;;15.43;11.90;;;;;;;5.33;68.22;100570.00;6132458;28;20621;-61
2021/01/28 03:02:11;;;;;;;19.77;13.13;;;;;;;5.38;68.23;100575.19;6102823;29;20236;-60
2021/01/28 03:05:31;;;;;;;13.70;10.70;;;;;;;5.25;68.22;100581.97;6115813;28;20236;-60
2021/01/28 03:08:52;;;;;;;17.97;12.83;;;;;;;5.45;68.19;100570.94;6115072;28;20244;-61
2021/01/28 03:12:38;;;;;;;17.17;12.97;;;;;;;5.51;68.22;100571.00;6117562;28;20228;-62
2021/01/28 03:16:11;;;;;;;14.23;12.73;;;;;;;5.68;67.20;100581.44;6115373;28;20236;-61
2021/01/28 03:19:36;;;;;;;18.43;13.63;;;;;;;5.56;67.40;100581.34;6105881;29;20227;-61
2021/01/28 03:23:09;;;;;;;13.53;10.83;;;;;;;5.59;67.09;100579.66;6114697;28;20263;-61
2021/01/28 03:27:00;;;;;;;14.40;11.07;;;;;;;5.56;67.34;100573.59;6121331;28;20232;-60
2021/01/28 03:30:23;;;;;;;13.43;10.97;;;;;;;5.58;66.97;100572.75;6126161;28;20236;-61
2021/01/28 03:33:44;;;;;;;16.27;11.10;;;;;;;5.76;66.59;100572.03;6130744;28;20234;-62
2021/01/28 03:37:06;;;;;;;13.57;10.40;;;;;;;5.72;66.14;100568.56;6119371;29;20366;-61
2021/01/28 03:40:35;;;;;;;14.63;10.20;;;;;;;5.51;66.47;100573.56;6111651;29;20227;-60
2021/01/28 03:43:58;;;;;;;13.50;9.70;;;;;;;5.58;66.20;100580.50;6113816;28;20227;-61
2021/01/28 03:47:20;;;;;;;11.87;9.00;;;;;;;5.68;65.60;100579.72;6114789;29;20243;-60
2021/01/28 03:50:59;;;;;;;13.90;8.90;;;;;;;5.82;65.64;100566.91;6119963;28;20831;-59
2021/01/28 03:54:25;;;;;;;11.57;9.20;;;;;;;5.63;66.31;100580.56;6111295;29;20239;-62
2021/01/28 03:57:56;;;;;;;12.50;8.60;;;;;;;5.95;65.51;100570.44;6111874;28;20383;-61
2021/01/28 04:01:18;;;;;;;12.17;8.80;;;;;;;5.77;65.44;100571.16;6112317;29;20235;-61
2021/01/28 04:04:40;;;;;;;11.60;8.93;;;;;;;5.64;65.70;100572.81;6112419;28;20229;-61
2021/01/28 04:08:21;;;;;;;13.00;8.30;;;;;;;5.51;66.02;100568.41;6112641;29;20510;-61
2021/01/28 04:12:03;;;;;;;9.87;7.77;;;;;;;5.46;66.10;100567.50;6104421;29;20749;-61
2021/01/28 04:15:42;;;;;;;22.30;16.87;;;;;;;5.81;65.44;100575.50;6116291;29;20232;-59
2021/01/28 04:19:04;;;;;;;21.20;18.87;;;;;;;5.66;65.05;100586.63;6115177;28;20228;-60
2021/01/28 04:22:34;;;;;;;26.03;23.23;;;;;;;5.69;65.00;100584.03;6111887;29;20231;-61
2021/01/28 04:25:54;;;;;;;19.90;15.43;;;;;;;5.82;64.54;100582.41;6121418;28;20701;-61
2021/01/28 04:29:15;;;;;;;12.57;9.70;;;;;;;5.92;64.04;100578.16;6118716;29;20502;-61
2021/01/28 04:32:57;;;;;;;10.57;7.80;;;;;;;5.64;64.64;100567.66;6123104;28;20618;-61
2021/01/28 04:36:35;;;;;;;11.87;8.33;;;;;;;5.96;64.21;100564.44;6120255;28;20525;-61
2021/01/28 04:40:37;;;;;;;11.23;7.57;;;;;;;5.81;63.77;100566.88;6112023;29;20244;-60
2021/01/28 04:44:03;;;;;;;9.00;7.47;;;;;;;5.28;64.30;100573.38;6103134;28;20227;-61
2021/01/28 04:47:40;;;;;;;8.90;7.00;;;;;;;5.56;64.67;100573.59;6129115;28;20724;-60
2021/01/28 04:51:40;;;;;;;10.57;7.27;;;;;;;5.30;63.81;100567.38;6109402;29;20897;-61
2021/01/28 04:55:04;;;;;;;7.13;5.90;;;;;;;5.35;62.84;100563.97;6112889;29;20239;-62
2021/01/28 04:58:32;;;;;;;7.97;6.17;;;;;;;5.38;62.93;100566.59;6116466;29;20609;-60
2021/01/28 05:02:06;;;;;;;8.53;6.73;;;;;;;5.38;62.50;100564.00;6115035;29;20229;-61
2021/01/28 05:05:46;;;;;;;7.83;6.43;;;;;;;5.46;61.70;100560.59;6116354;29;20617;-61
2021/01/28 05:09:21;;;;;;;7.43;6.47;;;;;;;5.58;62.48;100562.41;6125558;28;20315;-61
2021/01/28 05:13:08;;;;;;;7.93;6.97;;;;;;;5.43;62.05;100546.81;6116576;28;20866;-61
2021/01/28 05:16:56;;;;;;;9.50;7.23;;;;;;;5.36;62.52;100550.22;6109919;29;21027;-62
2021/01/28 05:20:21;;;;;;;9.30;6.80;;;;;;;5.13;63.10;100563.78;6118063;28;20228;-61
2021/01/28 05:24:04;;;;;;;8.77;7.53;;;;;;;5.18;63.37;100562.13;6117232;29;20232;-62
2021/01/28 05:27:31;;;;;;;8.90;7.33;;;;;;;5.03;63.25;100567.13;6120242;28;20303;-61
2021/01/28 05:30:53;;;;;;;9.70;6.93;;;;;;;4.91;63.87;100562.72;6119486;29;20609;-60
2021/01/28 05:34:19;;;;;;;10.93;7.60;;;;;;;4.88;63.80;100553.22;6117715;28;20228;-61
2021/01/28 05:38:09;;;;;;;9.43;6.80;;;;;;;4.98;63.51;100555.88;6116607;29;20235;-60
2021/01/28 05:41:50;;;;;;;8.43;6.47;;;;;;;4.88;63.62;100558.38;6116611;29;20231;-60
2021/01/28 05:45:31;;;;;;;8.37;6.10;;;;;;;4.89;63.61;100552.38;6126980;28;20627;-61
2021/01/28 05:49:20;;;;;;;9.17;6.93;;;;;;;4.90;62.89;100555.81;6112241;29;20258;-60
2021/01/28 05:53:08;;;;;;;8.70;6.63;;;;;;;4.77;63.55;100554.84;6114380;29;20239;-61
2021/01/28 05:56:33;;;;;;;9.03;6.83;;;;;;;4.97;63.12;100557.63;6113359;29;20239;-62
2021/01/28 06:00:08;;;;;;;8.57;7.23;;;;;;;5.03;62.89;100554.22;6109627;29;20229;-62
2021/01/28 06:04:10;;;;;;;7.93;6.90;;;;;;;5.18;62.21;100531.13;6112561;28;20240;-61
2021/01/28 06:08:24;;;;;;;7.97;7.00;;;;;;;5.29;62.28;100529.50;6109530;28;20232;-62
2021/01/28 06:12:09;;;;;;;10.83;6.63;;;;;;;5.10;62.21;100528.50;6101332;29;20269;-63
2021/01/28 06:15:51;;;;;;;8.10;7.27;;;;;;;4.95;62.17;100532.66;6114733;29;21479;-61
2021/01/28 06:19:46;;;;;;;7.57;6.73;;;;;;;5.17;61.85;100519.06;6117292;29;20227;-61
2021/01/28 06:23:31;;;;;;;11.93;7.90;;;;;;;5.32;61.61;100514.03;6111018;29;20323;-60
2021/01/28 06:27:13;;;;;;;8.67;7.53;;;;;;;5.40;61.34;100498.59;6106893;29;20582;-62
2021/01/28 06:30:45;;;;;;;9.60;8.13;;;;;;;5.19;61.73;100496.69;6112964;29;20236;-62
2021/01/28 06:34:33;;;;;;;10.07;7.83;;;;;;;5.15;62.23;100504.44;6122479;28;20267;-61
2021/01/28 06:38:37;;;;;;;8.73;7.40;;;;;;;5.07;62.65;100506.94;6111308;29;20239;-62
2021/01/28 06:42:26;;;;;;;31.97;26.90;;;;;;;5.27;62.36;100509.66;6117828;29;20228;-63
2021/01/28 06:46:17;;;;;;;39.43;32.73;;;;;;;5.21;62.32;100504.47;6118825;28;20249;-61
2021/01/28 06:49:54;;;;;;;28.20;20.90;;;;;;;5.12;62.81;100494.94;6127997;28;20570;-61
2021/01/28 06:53:20;;;;;;;31.43;24.87;;;;;;;5.27;62.16;100496.75;6114605;28;20239;-61
2021/01/28 06:57:21;;;;;;;18.93;15.50;;;;;;;5.27;62.34;100496.75;6068392;28;20331;-61
2021/01/28 07:01:20;;;;;;;10.57;8.70;;;;;;;4.97;61.98;100494.81;6112284;29;20255;-61
2021/01/28 07:04:53;;;;;;;11.63;8.90;;;;;;;5.04;61.67;100489.72;6135725;28;20584;-62
2021/01/28 07:08:37;;;;;;;8.53;7.50;;;;;;;4.82;61.90;100491.22;6119782;28;20243;-61
2021/01/28 07:12:21;;;;;;;10.00;9.00;;;;;;;4.86;62.07;100486.97;6110754;29;20243;-62
2021/01/28 07:16:13;;;;;;;7.63;6.83;;;;;;;5.01;61.61;100483.66;6107387;28;20590;-61
2021/01/28 07:19:38;;;;;;;8.30;6.83;;;;;;;4.76;62.06;100492.91;6106194;29;20761;-61
2021/01/28 07:23:24;;;;;;;9.60;8.63;;;;;;;4.57;62.92;100497.00;6118501;28;20760;-61
2021/01/28 07:26:54;;;;;;;8.43;7.23;;;;;;;4.72;62.21;100494.59;6108272;28;20220;-63
2021/01/28 07:30:35;;;;;;;8.93;8.13;;;;;;;4.73;62.29;100491.16;6111527;29;20506;-62
2021/01/28 07:34:08;;;;;;;8.30;7.40;;;;;;;4.73;62.68;100493.75;6110766;28;20521;-61
2021/01/28 07:37:53;;;;;;;8.63;7.80;;;;;;;4.87;62.57;100494.72;6109042;28;20764;-61
2021/01/28 07:41:57;;;;;;;9.07;8.10;;;;;;;4.84;62.84;100494.69;6111450;28;20235;-62
2021/01/28 07:46:11;;;;;;;8.27;7.47;;;;;;;4.73;62.84;100509.22;6117778;28;20239;-62
2021/01/28 07:50:19;;;;;;;8.73;7.83;;;;;;;4.82;62.13;100488.66;6116495;29;20656;-62
2021/01/28 07:53:51;;;;;;;9.80;8.60;;;;;;;4.51;63.07;100495.22;6114145;29;20235;-61
2021/01/28 07:57:33;;;;;;;8.43;7.23;;;;;;;4.47;63.20;100503.78;6102777;28;565527;-62
2021/01/28 08:00:56;;;;;;;10.27;8.23;;;;;;;4.74;62.55;100504.06;6121132;29;20232;-62
2021/01/28 08:04:27;;;;;;;7.40;6.70;;;;;;;4.85;61.37;100511.91;6120032;28;20232;-62
2021/01/28 08:08:04;;;;;;;8.13;6.77;;;;;;;4.51;61.55;100510.69;6116337;29;20240;-62
2021/01/28 08:11:25;;;;;;;6.27;5.67;;;;;;;4.61;61.28;100501.34;6118957;28;20283;-62
2021/01/28 08:14:46;;;;;;;10.50;9.50;;;;;;;4.74;60.92;100505.78;6124996;28;20243;-63
2021/01/28 08:18:16;;;;;;;7.27;6.63;;;;;;;4.47;61.11;100489.16;6121743;28;20228;-62
2021/01/28 08:21:37;;;;;;;7.27;6.67;;;;;;;4.59;60.48;100497.88;6123760;28;20272;-62
2021/01/28 08:24:58;;;;;;;7.40;6.70;;;;;;;4.98;59.79;100493.94;6122115;29;20236;-63
2021/01/28 08:28:18;;;;;;;7.93;7.23;;;;;;;4.91;60.36;100499.06;6122980;29;20232;-62
2021/01/28 08:31:41;;;;;;;7.97;7.17;;;;;;;5.05;58.80;100503.47;6121323;28;20220;-62
2021/01/28 08:35:06;;;;;;;7.63;6.83;;;;;;;5.38;58.90;100487.38;6118151;28;20239;-63
2021/01/28 08:38:29;;;;;;;7.53;6.83;;;;;;;5.46;58.64;100477.09;6132826;28;20255;-62
2021/01/28 08:42:01;;;;;;;7.90;7.10;;;;;;;5.63;57.42;100478.06;6116751;29;20606;-63
2021/01/28 08:45:26;;;;;;;7.13;6.47;;;;;;;6.28;55.32;100473.19;6124195;28;20576;-63
2021/01/28 08:48:48;;;;;;;6.27;5.77;;;;;;;6.46;53.23;100481.03;6117686;29;20227;-63
2021/01/28 08:52:15;;;;;;;6.83;6.13;;;;;;;9.40;48.04;100466.16;6117404;28;20626;-62
2021/01/28 08:55:38;;;;;;;13.90;12.60;;;;;;;8.43;48.61;100472.09;6118776;29;20231;-62
2021/01/28 08:59:02;;;;;;;8.73;7.70;;;;;;;7.38;51.65;100471.56;6117281;29;20232;-62
2021/01/28 09:02:26;;;;;;;7.73;5.20;;;;;;;6.66;52.29;100486.22;6114501;29;20259;-62
2021/01/28 09:05:47;;;;;;;5.33;4.93;;;;;;;6.39;53.03;100471.50;6118652;28;20681;-62
2021/01/28 09:09:26;;;;;;;6.17;5.67;;;;;;;6.06;53.28;100457.63;6117676;29;20232;-63
2021/01/28 09:12:47;;;;;;;6.03;5.43;;;;;;;5.97;53.50;100472.22;6114708;28;20220;-63
2021/01/28 09:16:13;;;;;;;6.47;5.73;;;;;;;5.90;53.38;100473.91;6113843;28;20622;-62
2021/01/28 09:19:38;;;;;;;6.90;6.23;;;;;;;5.98;53.13;100454.16;6120460;28;20263;-62
2021/01/28 09:23:07;;;;;;;5.50;5.00;;;;;;;5.66;53.96;100452.25;6111253;28;20233;-63
2021/01/28 09:26:31;;;;;;;7.00;5.83;;;;;;;6.10;53.59;100445.56;6116549;28;20621;-63
2021/01/28 09:29:53;;;;;;;6.63;6.03;;;;;;;6.10;53.43;100433.50;6116864;29;20634;-63
2021/01/28 09:33:31;;;;;;;6.33;5.73;;;;;;;6.58;53.03;100430.16;6119056;28;20224;-62
2021/01/28 09:36:56;;;;;;;5.60;5.10;;;;;;;8.22;48.27;100436.72;6117440;28;20311;-63
2021/01/28 09:40:23;;;;;;;5.83;5.23;;;;;;;9.84;44.76;100416.25;6118213;28;20236;-64
2021/01/28 09:43:45;;;;;;;7.27;6.60;;;;;;;8.12;47.26;100414.28;6115839;29;20240;-63
2021/01/28 09:47:15;;;;;;;9.77;5.57;;;;;;;7.42;49.32;100411.13;6113897;28;20732;-64
2021/01/28 09:50:36;;;;;;;6.47;5.87;;;;;;;7.20;50.67;100405.13;6113881;28;20546;-63
2021/01/28 09:54:01;;;;;;;6.47;5.97;;;;;;;6.73;51.71;100409.50;6117136;28;20252;-63
2021/01/28 09:57:22;;;;;;;6.83;6.20;;;;;;;6.73;52.26;100411.19;6114406;28;20239;-64
2021/01/28 10:00:43;;;;;;;7.10;6.47;;;;;;;7.06;51.75;100412.94;6114275;28;20236;-64
2021/01/28 10:04:04;;;;;;;6.73;6.03;;;;;;;6.84;52.18;100412.06;6115074;29;20235;-63
2021/01/28 10:07:25;;;;;;;8.43;6.57;;;;;;;6.75;51.85;100422.44;6112267;29;20235;-63
2021/01/28 10:10:46;;;;;;;6.97;6.33;;;;;;;6.89;51.49;100423.28;6111372;29;20236;-64
2021/01/28 10:14:06;;;;;;;5.60;5.20;;;;;;;6.97;50.46;100418.97;6111457;29;21214;-62
2021/01/28 10:17:27;;;;;;;6.03;5.43;;;;;;;6.99;50.13;100419.81;6109168;28;20235;-63
2021/01/28 10:20:48;;;;;;;4.83;4.43;;;;;;;7.16;49.44;100425.00;6107019;29;20231;-63
2021/01/28 10:24:09;;;;;;;4.97;4.53;;;;;;;8.19;49.93;100421.19;6108311;28;20232;-62
2021/01/28 10:27:30;;;;;;;5.20;4.70;;;;;;;10.14;42.59;100405.47;6110102;29;20603;-63
2021/01/28 10:30:50;;;;;;;5.43;4.93;;;;;;;10.30;43.91;100406.13;6103329;28;20231;-62
2021/01/28 10:34:12;;;;;;;5.13;4.70;;;;;;;9.94;41.53;100405.75;6112846;28;20228;-62
2021/01/28 10:37:32;;;;;;;3.90;3.60;;;;;;;8.98;42.60;100398.16;6111709;29;20618;-63
2021/01/28 10:40:54;;;;;;;5.57;4.93;;;;;;;8.75;43.82;100399.19;6115963;29;20240;-63
2021/01/28 10:44:16;;;;;;;5.90;5.30;;;;;;;8.45;44.85;100405.47;6112836;29;20594;-63
2021/01/28 10:47:36;;;;;;;4.63;4.20;;;;;;;7.84;45.36;100411.84;6107919;29;20229;-64
2021/01/28 10:50:57;;;;;;;4.83;4.43;;;;;;;7.37;47.40;100418.06;6110020;29;20625;-64
2021/01/28 10:54:18;;;;;;;4.93;4.00;;;;;;;6.64;48.25;100412.06;6111181;29;20244;-64
2021/01/28 10:57:38;;;;;;;5.90;5.13;;;;;;;6.38;49.65;100412.91;6110996;28;20240;-62
2021/01/28 11:00:58;;;;;;;4.83;4.40;;;;;;;6.62;49.78;100409.47;6106585;28;20232;-63
2021/01/28 11:04:19;;;;;;;5.00;4.50;;;;;;;6.36;49.49;100399.09;6108115;29;20216;-64
2021/01/28 11:07:40;;;;;;;4.97;4.50;;;;;;;6.72;49.48;100388.78;6112008;29;20555;-63
2021/01/28 11:11:01;;;;;;;5.27;4.77;;;;;;;6.19;50.33;100390.44;6108558;28;20237;-63
2021/01/28 11:14:21;;;;;;;5.07;4.67;;;;;;;6.43;49.57;100387.88;6108597;29;20244;-62
2021/01/28 11:17:42;;;;;;;6.20;5.60;;;;;;;6.50;49.91;100376.69;6111545;28;20235;-63
2021/01/28 11:21:03;;;;;;;5.23;4.60;;;;;;;5.75;51.07;100379.09;6114427;28;20506;-63
2021/01/28 11:24:24;;;;;;;5.47;4.97;;;;;;;5.98;51.13;100375.75;6112397;28;20251;-63
2021/01/28 11:27:45;;;;;;;4.93;4.53;;;;;;;6.26;52.05;100361.13;6108599;28;20346;-62
2021/01/28 11:31:06;;;;;;;5.00;4.47;;;;;;;6.47;50.60;100355.97;6114120;28;20236;-62
2021/01/28 11:34:27;;;;;;;7.33;6.27;;;;;;;6.24;52.60;100349.94;6111727;29;20231;-63
2021/01/28 11:37:49;;;;;;;10.50;9.50;;;;;;;6.35;52.28;100350.81;6113161;28;20259;-62
2021/01/28 11:41:11;;;;;;;5.50;5.00;;;;;;;5.97;52.03;100341.28;6112956;28;20591;-62
2021/01/28 11:44:31;;;;;;;5.33;4.30;;;;;;;5.87;51.44;100337.78;6113021;28;20307;-63
2021/01/28 11:47:51;;;;;;;5.50;4.17;;;;;;;5.70;51.88;100335.16;6106543;29;20996;-62
2021/01/28 11:51:12;;;;;;;6.20;5.17;;;;;;;5.93;51.54;100334.34;6113662;29;20228;-62
2021/01/28 11:54:33;;;;;;;5.67;5.17;;;;;;;5.23;52.91;100338.38;6108173;28;20330;-62
2021/01/28 11:57:54;;;;;;;4.60;4.20;;;;;;;6.01;51.31;100334.38;6114772;29;20231;-63
2021/01/28 12:01:14;;;;;;;4.50;4.10;;;;;;;5.93;50.93;100329.16;6114732;29;20636;-63
2021/01/28 12:04:35;;;;;;;4.17;3.80;;;;;;;5.91;50.30;100320.53;6109501;29;20232;-64
2021/01/28 12:07:56;;;;;;;4.43;4.03;;;;;;;6.20;49.86;100319.75;6115486;29;20239;-64
2021/01/28 12:11:17;;;;;;;4.80;3.60;;;;;;;6.31;49.90;100325.81;6112987;29;20232;-63
2021/01/28 12:14:38;;;;;;;5.03;4.63;;;;;;;6.25;49.29;100311.16;6115297;28;20252;-63
2021/01/28 12:17:59;;;;;;;6.07;4.67;;;;;;;6.36;49.36;100318.94;6109468;28;20232;-62
2021/01/28 12:21:19;;;;;;;4.80;4.40;;;;;;;6.44;49.45;100317.19;6116949;29;20263;-63
2021/01/28 12:24:40;;;;;;;12.03;8.43;;;;;;;6.36;50.18;100311.16;6108001;29;20311;-63
2021/01/28 12:28:00;;;;;;;6.20;5.60;;;;;;;6.36;49.28;100311.16;6117538;28;20239;-63
2021/01/28 12:31:21;;;;;;;6.03;5.47;;;;;;;6.39;48.95;100311.16;6116986;29;20236;-64
2021/01/28 12:34:42;;;;;;;5.57;4.90;;;;;;;6.95;48.42;100305.94;6113559;29;20253;-63
2021/01/28 12:38:04;;;;;;;5.63;4.60;;;;;;;6.67;47.99;100305.97;6115637;28;20641;-63
2021/01/28 12:41:24;;;;;;;7.30;3.80;;;;;;;6.84;47.59;100309.41;6117869;28;20237;-64
2021/01/28 12:44:44;;;;;;;6.43;4.10;;;;;;;7.01;48.77;100316.25;6112027;28;20327;-62
2021/01/28 12:48:06;;;;;;;5.30;3.90;;;;;;;6.77;49.62;100306.84;6117059;29;20228;-61
2021/01/28 12:51:26;;;;;;;5.30;3.37;;;;;;;6.94;47.94;100299.91;6111282;29;20512;-63
2021/01/28 12:54:47;;;;;;;3.73;3.03;;;;;;;7.25;47.15;100300.66;6116585;28;20523;-63
2021/01/28 12:58:07;;;;;;;3.47;2.50;;;;;;;7.69;45.80;100296.97;6120233;28;20773;-61
2021/01/28 13:01:28;;;;;;;4.70;2.57;;;;;;;8.26;44.43;100287.97;6113784;29;20244;-63
2021/01/28 13:04:49;;;;;;;3.73;3.07;;;;;;;7.54;44.14;100285.84;6118672;29;20622;-63
2021/01/28 13:08:10;;;;;;;3.57;2.80;;;;;;;7.78;43.34;100282.25;6111677;29;20224;-62
2021/01/28 13:11:32;;;;;;;9.83;6.93;;;;;;;8.43;41.93;100264.50;6117289;29;20524;-62
2021/01/28 13:14:52;;;;;;;5.17;3.43;;;;;;;9.51;39.51;100265.91;6116177;28;20539;-63
2021/01/28 13:18:13;;;;;;;2.60;1.90;;;;;;;10.67;37.31;100258.03;6117153;28;20239;-64
2021/01/28 13:21:34;;;;;;;2.37;1.70;;;;;;;12.60;33.74;100252.00;6118363;28;20453;-63
2021/01/28 13:24:55;;;;;;;4.37;1.90;;;;;;;12.92;32.12;100245.06;6120356;28;20235;-63
2021/01/28 13:28:15;;;;;;;2.50;2.27;;;;;;;11.77;34.17;100252.28;6105391;28;20547;-64
2021/01/28 13:31:36;;;;;;;2.63;1.50;;;;;;;10.96;35.70;100251.41;6111607;29;20264;-62
2021/01/28 13:34:56;;;;;;;3.20;1.77;;;;;;;10.24;36.78;100256.13;6117023;29;20232;-63
2021/01/28 13:38:17;;;;;;;1.90;1.60;;;;;;;10.12;37.01;100253.72;6116307;29;20236;-64
2021/01/28 13:41:38;;;;;;;4.40;1.33;;;;;;;9.16;38.34;100249.88;6113408;29;20267;-63
2021/01/28 13:44:58;;;;;;;2.20;1.50;;;;;;;9.43;38.54;100248.66;6116557;28;20240;-63
2021/01/28 13:48:18;;;;;;;6.30;2.30;;;;;;;9.96;37.50;100248.75;6115056;28;20232;-63
2021/01/28 13:51:39;;;;;;;3.43;1.53;;;;;;;9.25;38.58;100247.16;6117291;28;20532;-63
2021/01/28 13:55:00;;;;;;;2.03;1.83;;;;;;;9.06;39.06;100250.88;6119655;29;20248;-63
2021/01/28 13:58:21;;;;;;;3.83;1.83;;;;;;;8.72;39.55;100251.22;6111094;29;20240;-63
2021/01/28 14:01:41;;;;;;;4.73;1.50;;;;;;;9.30;39.18;100251.44;6116647;29;20271;-63
2021/01/28 14:05:02;;;;;;;5.57;2.77;;;;;;;9.29;38.44;100247.13;6118190;28;20510;-62
2021/01/28 14:08:22;;;;;;;4.27;2.33;;;;;;;8.60;39.88;100251.38;6118610;28;20642;-63
2021/01/28 14:11:44;;;;;;;3.47;1.70;;;;;;;8.96;39.38;100251.88;6110244;28;20232;-62
2021/01/28 14:15:06;;;;;;;3.60;1.80;;;;;;;8.34;40.56;100260.22;6114792;29;20235;-62
2021/01/28 14:18:27;;;;;;;4.60;2.80;;;;;;;7.84;41.65;100264.06;6114899;28;20726;-62
2021/01/28 14:21:47;;;;;;;3.37;1.50;;;;;;;7.48;42.23;100260.81;6116231;28;20237;-61
2021/01/28 14:25:09;;;;;;;6.03;3.30;;;;;;;7.12;43.85;100267.03;6114578;29;20240;-61
2021/01/28 14:28:30;;;;;;;5.00;1.90;;;;;;;7.20;43.54;100268.72;6113091;29;20581;-62
2021/01/28 14:31:51;;;;;;;2.20;1.50;;;;;;;7.18;43.55;100278.22;6115565;28;20505;-62
2021/01/28 14:35:13;;;;;;;2.30;1.43;;;;;;;6.78;43.56;100267.97;6121717;28;20323;-62
2021/01/28 14:38:33;;;;;;;2.73;2.03;;;;;;;6.66;43.98;100265.44;6131206;28;20241;-61
2021/01/28 14:41:54;;;;;;;6.63;4.53;;;;;;;6.61;45.02;100277.50;6124036;28;20231;-62
2021/01/28 14:45:16;;;;;;;7.47;6.50;;;;;;;6.02;46.36;100280.09;6112383;28;20322;-61
2021/01/28 14:48:37;;;;;;;3.37;2.80;;;;;;;5.53;47.33;100292.91;6117170;29;20240;-62
2021/01/28 14:51:57;;;;;;;6.90;2.80;;;;;;;5.83;46.91;100286.06;6115939;28;20232;-62
2021/01/28 14:55:17;;;;;;;4.77;1.97;;;;;;;5.97;46.71;100289.59;6107552;29;20255;-61
2021/01/28 14:58:38;;;;;;;4.00;2.37;;;;;;;5.99;46.76;100303.38;6110711;28;20263;-62
2021/01/28 15:01:59;;;;;;;2.83;1.87;;;;;;;5.75;47.00;100303.28;6112721;28;20243;-62
2021/01/28 15:05:20;;;;;;;3.97;3.33;;;;;;;5.46;47.70;100309.22;6119573;29;20227;-61
2021/01/28 15:08:41;;;;;;;3.73;2.63;;;;;;;5.28;48.06;100322.94;6118608;29;20235;-62
2021/01/28 15:12:01;;;;;;;4.50;2.17;;;;;;;5.49;47.71;100320.44;6119349;28;20231;-62
2021/01/28 15:15:21;;;;;;;4.23;2.37;;;;;;;5.61;47.66;100319.63;6113422;29;20235;-62
2021/01/28 15:18:43;;;;;;;2.93;2.30;;;;;;;5.63;47.88;100327.38;6121609;28;20240;-61
2021/01/28 15:22:04;;;;;;;2.40;2.20;;;;;;;5.49;49.56;100325.59;6115072;28;20235;-56
2021/01/28 15:25:25;;;;;;;2.80;2.27;;;;;;;5.65;48.43;100329.09;6107532;29;20708;-62
2021/01/28 15:28:46;;;;;;;4.20;1.97;;;;;;;5.66;48.00;100337.69;6119379;28;20231;-62
2021/01/28 15:32:06;;;;;;;3.50;2.90;;;;;;;5.30;48.64;100334.13;6115422;28;20627;-61
2021/01/28 15:35:29;;;;;;;3.67;1.90;;;;;;;5.38;48.53;100336.75;6102957;28;20243;-62
2021/01/28 15:38:50;;;;;;;7.27;2.13;;;;;;;5.17;48.51;100335.78;6114586;28;20319;-62
2021/01/28 15:42:11;;;;;;;3.27;2.37;;;;;;;5.18;48.51;100340.09;6115422;29;20338;-61
2021/01/28 15:45:31;;;;;;;2.67;2.13;;;;;;;4.93;49.68;100334.78;6119581;29;20382;-62
2021/01/28 15:48:51;;;;;;;5.33;2.30;;;;;;;4.91;48.95;100341.66;6114586;29;20235;-62
2021/01/28 15:52:13;;;;;;;4.73;3.03;;;;;;;5.06;49.47;100340.00;6116332;29;20240;-63
2021/01/28 15:55:34;;;;;;;2.87;2.60;;;;;;;5.08;49.52;100346.06;6117998;29;20330;-62
2021/01/28 15:58:55;;;;;;;2.80;2.40;;;;;;;4.39;50.56;100351.56;6119885;29;20247;-62
2021/01/28 16:02:15;;;;;;;3.13;2.20;;;;;;;4.21;50.85;100351.44;6105971;29;20236;-63
2021/01/28 16:05:36;;;;;;;4.77;2.60;;;;;;;4.47;50.56;100355.06;6111302;28;20557;-62
2021/01/28 16:08:57;;;;;;;7.60;2.73;;;;;;;4.64;50.30;100357.81;6116840;29;20232;-63
2021/01/28 16:12:17;;;;;;;9.23;3.50;;;;;;;4.49;50.77;100371.41;6116253;29;20224;-62